Accueil
METAR-TAF:

METAR-TAF

Aéroports :

Belgrade, Serbie

Aéroport Nikola-Tesla de Belgrade

latitude: 44-49N, longitude: 020-17E, altitude: 96 m

Observation

Le bulletin a été fait il y a 16 minutes, à 22:30 UTC
Vent 3 kt de sud
Température 15°C
Humidité 82%
Pression 1017 hPa
Visibilité 10 km ou plus
pas de nuages en-dessous de 1500 mètres et pas de cumulonimbus.

METAR: LYBE 242230Z 17003KT CAVOK 15/12 Q1017 NOSIG

Heure: 00:46 (22:46 UTC)

Prévision

Le bulletin a été fait il y a 5 heures et 46 minutes, à 17:00 UTC
Prévision valable du 24 à 18 UTC au 25 à 18 UTC
Vent 6 kt de nord-est
Visibilité 10 km ou plus
pas de nuages en-dessous de 1500 mètres et pas de cumulonimbus.

TAF: LYBE 241700Z 2418/2518 04006KT CAVOK TX28/2513Z TN15/2504Z

Observations et prévisions météorologiques de plus de 4000 aéroports (messages METAR et TAF).

Les stations disponibles sont représentées par des disques jaunes et rouges sur la carte.

Passer la souris dessus pour voir le nom de la station.

Cliquer dessus pour voir les observations et prévisions météorologiques.

Pour changer de carte: cliquez sur les boutons verts avec une croix noire pour zoomer, sur le bouton vert avec un tiret pour effectuer un zoom arrière, ou sur les flèches vertes pour les cartes adjacentes.


METAR-TAF: